Time;durP1;ratioP1;P1;durP2;ratioP2;P2;SDS_P1;SDS_P2;PMS_P1;PMS_P2;Temp;Humidity;BMP_temperature;BMP_pressure;BME280_temperature;BME280_humidity;BME280_pressure;Samples;Min_cycle;Max_cycle;Signal;HPM_P1;HPM_P2
2022/08/15 07:19:49;;;;;;;15.20;9.40;;;27.60;99.90;;;;;;4888054;29;20514;-44
2022/08/15 07:22:14;;;;;;;16.70;9.57;;;27.90;99.90;;;;;;4861464;29;20418;-43
2022/08/15 07:24:49;;;;;;;16.47;9.63;;;28.20;99.90;;;;;;4861354;29;20603;-43
2022/08/15 07:27:18;;;;;;;14.37;9.67;;;28.40;99.90;;;;;;4861422;29;20234;-44
2022/08/15 07:29:48;;;;;;;14.93;8.63;;;28.70;99.90;;;;;;4862506;29;20470;-44
2022/08/15 07:32:30;;;;;;;85.77;49.37;;;28.90;99.90;;;;;;4886254;29;20447;-43
2022/08/15 07:35:05;;;;;;;12.30;9.10;;;29.10;99.90;;;;;;4873337;29;20556;-43
2022/08/15 07:37:35;;;;;;;17.43;11.33;;;29.40;99.90;;;;;;4861183;29;20445;-44
2022/08/15 07:40:06;;;;;;;12.10;8.80;;;29.70;99.90;;;;;;4844528;29;20422;-44
2022/08/15 07:42:39;;;;;;;12.33;8.80;;;30.00;99.90;;;;;;4866679;29;20807;-44
2022/08/15 07:45:10;;;;;;;10.80;9.00;;;30.20;99.90;;;;;;4861048;29;20785;-44
2022/08/15 07:47:36;;;;;;;16.53;9.53;;;30.30;99.90;;;;;;4861113;29;20906;-45
2022/08/15 07:50:05;;;;;;;10.40;9.00;;;30.40;99.90;;;;;;4864197;29;20449;-44
2022/08/15 07:52:32;;;;;;;16.80;8.57;;;30.50;99.90;;;;;;4865268;29;20197;-50
2022/08/15 07:55:19;;;;;;;12.23;9.03;;;30.50;99.90;;;;;;4884089;29;20463;-49
2022/08/15 07:58:05;;;;;;;9.07;8.17;;;30.70;99.90;;;;;;4890369;29;20429;-49
2022/08/15 08:00:34;;;;;;;12.40;9.10;;;30.80;99.90;;;;;;4878477;29;20441;-49
2022/08/15 08:03:21;;;;;;;10.17;9.13;;;31.00;99.90;;;;;;4865558;29;20865;-50
2022/08/15 08:05:55;;;;;;;16.77;9.50;;;30.90;99.90;;;;;;4863803;29;20460;-50
2022/08/15 08:08:35;;;;;;;13.13;8.90;;;31.00;99.90;;;;;;4861043;29;20422;-49
2022/08/15 08:11:08;;;;;;;11.17;8.37;;;31.20;99.90;;;;;;4860422;29;20805;-49
2022/08/15 08:13:54;;;;;;;9.70;7.87;;;31.40;99.90;;;;;;4861494;29;21023;-49
2022/08/15 08:16:29;;;;;;;9.30;8.40;;;31.50;99.90;;;;;;4860475;29;20580;-50
2022/08/15 08:18:57;;;;;;;10.97;7.83;;;31.60;99.90;;;;;;4869381;29;20978;-50
2022/08/15 08:21:33;;;;;;;10.87;7.70;;;31.90;99.90;;;;;;4895323;29;20503;-50
2022/08/15 08:24:04;;;;;;;10.87;9.37;;;32.10;99.90;;;;;;4899125;29;20503;-50
2022/08/15 08:27:00;;;;;;;10.30;8.80;;;32.20;99.90;;;;;;4898702;29;20463;-44
2022/08/15 08:29:44;;;;;;;13.33;7.90;;;32.30;99.90;;;;;;4899049;29;20423;-44
2022/08/15 08:32:27;;;;;;;186.63;138.13;;;32.30;99.90;;;;;;4880180;29;20464;-45
2022/08/15 08:35:05;;;;;;;14.20;11.87;;;32.80;99.90;;;;;;4881905;29;20543;-44
2022/08/15 08:37:50;;;;;;;10.27;8.77;;;33.00;99.90;;;;;;4898416;29;20439;-44
2022/08/15 08:43:39;;;;;;;12.73;8.53;;;33.40;99.90;;;;;;4894833;29;20476;-44
2022/08/15 08:46:10;;;;;;;13.93;9.50;;;33.50;99.90;;;;;;4898541;29;20487;-44
2022/08/15 08:48:58;;;;;;;14.53;8.10;;;33.70;99.90;;;;;;4898639;29;20425;-44
2022/08/15 08:51:24;;;;;;;12.13;8.67;;;33.70;99.90;;;;;;4884016;29;20539;-45
2022/08/15 08:54:26;;;;;;;10.73;8.70;;;33.90;99.90;;;;;;4891282;29;20458;-50
2022/08/15 08:56:55;;;;;;;12.00;8.53;;;34.30;99.90;;;;;;4884660;29;20490;-49
2022/08/15 08:59:23;;;;;;;10.10;8.40;;;34.50;99.90;;;;;;4895742;29;21009;-49
2022/08/15 09:01:58;;;;;;;10.50;8.60;;;34.60;99.90;;;;;;4898427;29;20938;-49
2022/08/15 09:04:34;;;;;;;10.87;8.00;;;34.60;99.90;;;;;;4898270;29;20443;-49
2022/08/15 09:07:02;;;;;;;11.93;8.00;;;34.90;99.90;;;;;;4898357;29;20404;-49
2022/08/15 09:09:37;;;;;;;12.17;8.50;;;35.00;99.90;;;;;;4889759;29;20796;-50
2022/08/15 09:15:24;;;;;;;9.47;8.60;;;34.80;99.90;;;;;;4893971;29;20535;-49
2022/08/15 09:17:56;;;;;;;9.30;8.40;;;34.60;99.90;;;;;;4898085;29;20456;-50
2022/08/15 09:20:32;;;;;;;9.17;8.00;;;34.50;99.90;;;;;;4877586;29;20413;-50
2022/08/15 09:23:00;;;;;;;11.40;8.37;;;34.70;99.90;;;;;;4878427;29;20449;-49
2022/08/15 09:25:28;;;;;;;12.30;7.60;;;34.70;99.90;;;;;;4877855;29;20432;-50
2022/08/15 09:28:24;;;;;;;11.13;7.77;;;34.80;99.90;;;;;;4879558;29;20975;-49
2022/08/15 09:30:51;;;;;;;10.90;8.43;;;34.70;99.90;;;;;;4888532;29;20543;-50
2022/08/15 09:33:32;;;;;;;9.90;8.07;;;34.80;99.90;;;;;;4896483;29;20416;-50
2022/08/15 09:36:43;;;;;;;12.70;7.77;;;34.80;99.90;;;;;;4881567;29;20484;-50
2022/08/15 09:39:34;;;;;;;11.93;7.77;;;34.80;99.90;;;;;;4832216;29;20501;-50
2022/08/15 09:42:25;;;;;;;10.40;7.67;;;34.80;99.90;;;;;;4835660;29;20455;-50
2022/08/15 09:44:53;;;;;;;15.00;8.47;;;34.90;99.90;;;;;;4887503;29;20865;-50
2022/08/15 09:47:25;;;;;;;11.13;8.30;;;34.90;99.90;;;;;;4889743;29;20445;-50
2022/08/15 09:50:17;;;;;;;9.03;7.93;;;34.90;99.90;;;;;;4878401;29;20456;-50
2022/08/15 09:52:52;;;;;;;10.53;8.40;;;34.90;99.90;;;;;;4848586;29;20915;-50
2022/08/15 09:55:27;;;;;;;13.23;8.37;;;34.90;99.90;;;;;;4877036;29;20491;-49
2022/08/15 09:57:55;;;;;;;36.83;23.30;;;34.60;99.90;;;;;;4891262;29;20455;-49
2022/08/15 10:00:44;;;;;;;25.37;22.60;;;34.20;99.90;;;;;;4894054;29;20482;-49
2022/08/15 10:03:45;;;;;;;11.43;8.80;;;34.20;99.90;;;;;;4848132;29;20433;-50
2022/08/15 10:06:14;;;;;;;11.70;8.70;;;34.30;99.90;;;;;;4877097;29;20487;-49
2022/08/15 10:09:15;;;;;;;9.27;8.07;;;34.40;99.90;;;;;;4877251;29;20402;-49
2022/08/15 10:11:40;;;;;;;11.80;8.57;;;34.40;99.90;;;;;;4888200;29;20443;-49
2022/08/15 10:14:25;;;;;;;10.10;9.10;;;34.40;99.90;;;;;;4882412;29;20444;-50
2022/08/15 10:16:54;;;;;;;11.73;8.07;;;34.70;99.90;;;;;;4888201;29;20231;-50
2022/08/15 10:19:31;;;;;;;9.90;8.37;;;35.00;99.90;;;;;;4895837;29;20540;-50
2022/08/15 10:22:00;;;;;;;8.93;8.00;;;35.40;99.90;;;;;;4898032;29;20925;-50
2022/08/15 10:24:38;;;;;;;11.27;8.10;;;35.60;99.90;;;;;;4895086;29;20495;-50
2022/08/15 10:27:07;;;;;;;9.87;8.27;;;35.80;99.90;;;;;;4894892;29;20420;-50
2022/08/15 10:29:34;;;;;;;12.33;8.03;;;36.10;99.90;;;;;;4895801;29;20476;-50
2022/08/15 10:32:01;;;;;;;10.17;9.10;;;36.30;99.90;;;;;;4895316;29;20439;-49
2022/08/15 10:34:41;;;;;;;9.30;7.73;;;36.50;99.90;;;;;;4896733;29;20448;-50
2022/08/15 10:37:21;;;;;;;12.93;9.17;;;36.60;99.90;;;;;;4894619;29;20451;-51
2022/08/15 10:40:11;;;;;;;13.00;8.53;;;36.80;99.90;;;;;;4889247;29;20930;-50
2022/08/15 10:42:44;;;;;;;16.50;8.10;;;36.80;99.90;;;;;;4880784;29;20403;-50
2022/08/15 10:45:36;;;;;;;8.63;7.80;;;37.00;99.90;;;;;;4886854;29;20462;-51
2022/08/15 10:48:27;;;;;;;13.67;8.77;;;37.30;99.90;;;;;;4894360;29;20792;-49
2022/08/15 10:51:21;;;;;;;8.90;7.63;;;37.20;99.90;;;;;;4888105;29;20452;-50
2022/08/15 10:54:11;;;;;;;16.60;8.30;;;37.20;99.90;;;;;;4882885;29;20448;-50
2022/08/15 10:56:39;;;;;;;11.47;8.40;;;37.30;99.90;;;;;;4899049;29;20473;-50
2022/08/15 10:59:16;;;;;;;10.17;7.60;;;37.60;99.90;;;;;;4900640;29;20454;-51
2022/08/15 11:01:44;;;;;;;11.00;7.80;;;37.90;99.90;;;;;;4898712;29;20454;-51
2022/08/15 11:04:37;;;;;;;8.80;7.30;;;38.10;99.90;;;;;;4899108;29;20419;-51
2022/08/15 11:07:20;;;;;;;15.87;8.20;;;37.90;99.90;;;;;;4893081;29;20456;-51
2022/08/15 11:09:58;;;;;;;14.03;7.80;;;38.10;99.90;;;;;;4899342;29;20451;-51
2022/08/15 11:12:28;;;;;;;11.97;7.93;;;38.20;99.90;;;;;;4899639;29;20455;-50
2022/08/15 11:14:59;;;;;;;11.07;8.20;;;38.40;99.90;;;;;;4898359;29;20482;-51
2022/08/15 11:17:30;;;;;;;118.70;88.80;;;38.60;99.90;;;;;;4898481;29;20444;-51
2022/08/15 11:20:07;;;;;;;16.27;11.53;;;38.60;99.90;;;;;;4898965;29;20586;-49
2022/08/15 11:22:36;;;;;;;9.53;8.10;;;38.90;99.90;;;;;;4898577;29;20546;-51
2022/08/15 11:25:12;;;;;;;9.80;8.33;;;39.10;99.90;;;;;;4897800;29;20462;-51
2022/08/15 11:27:38;;;;;;;8.87;7.90;;;39.20;99.90;;;;;;4888211;29;20451;-51
2022/08/15 11:30:06;;;;;;;9.43;8.43;;;39.10;99.90;;;;;;4898355;29;20868;-51
2022/08/15 11:32:37;;;;;;;17.43;8.27;;;39.10;99.90;;;;;;4890555;29;20205;-50
2022/08/15 11:35:28;;;;;;;11.07;7.80;;;39.30;99.90;;;;;;4888761;29;20525;-50
2022/08/15 11:38:00;;;;;;;11.80;7.30;;;39.20;99.90;;;;;;4893368;29;20551;-50
2022/08/15 11:40:31;;;;;;;10.27;7.17;;;39.10;99.90;;;;;;4898428;29;20902;-50
2022/08/15 11:43:00;;;;;;;14.00;8.50;;;38.70;99.90;;;;;;4897899;29;20480;-50
2022/08/15 11:45:40;;;;;;;9.73;8.43;;;37.70;99.90;;;;;;4898131;29;20495;-50
2022/08/15 11:48:17;;;;;;;11.30;9.37;;;36.70;99.90;;;;;;4897809;29;20459;-50
2022/08/15 11:50:55;;;;;;;11.93;9.30;;;36.60;99.90;;;;;;4898353;29;21237;-50
2022/08/15 11:53:21;;;;;;;10.70;8.07;;;35.90;99.90;;;;;;4886102;29;20451;-50
2022/08/15 11:55:47;;;;;;;10.93;8.60;;;35.10;99.90;;;;;;4879429;29;20473;-50
2022/08/15 11:58:12;;;;;;;14.43;8.53;;;35.40;99.90;;;;;;4886576;29;20220;-50
2022/08/15 12:00:42;;;;;;;10.10;8.70;;;36.30;99.90;;;;;;4901327;29;20456;-50
2022/08/15 12:03:20;;;;;;;12.33;8.37;;;37.20;99.90;;;;;;4891714;29;20200;-50
2022/08/15 12:05:46;;;;;;;8.70;8.00;;;37.60;99.90;;;;;;4897931;29;20398;-50
2022/08/15 12:08:12;;;;;;;11.00;7.60;;;37.50;99.90;;;;;;4897264;29;20456;-49
2022/08/15 12:10:41;;;;;;;26.93;8.70;;;37.90;99.90;;;;;;4903511;29;20451;-50
2022/08/15 12:13:08;;;;;;;11.30;8.00;;;38.20;99.90;;;;;;4916550;29;20521;-50
2022/08/15 12:15:34;;;;;;;15.00;8.10;;;38.70;99.90;;;;;;4894426;29;20545;-50
2022/08/15 12:18:04;;;;;;;10.40;8.20;;;39.20;99.90;;;;;;4897821;29;20535;-51
2022/08/15 12:20:39;;;;;;;9.10;8.20;;;38.60;99.90;;;;;;4897668;29;20215;-50
2022/08/15 12:23:28;;;;;;;9.57;8.30;;;38.20;99.90;;;;;;4897608;29;20859;-51
2022/08/15 12:25:59;;;;;;;8.47;7.77;;;38.40;99.90;;;;;;4896901;29;20914;-51
2022/08/15 12:28:27;;;;;;;8.43;7.73;;;38.80;99.90;;;;;;4896194;29;20467;-49
2022/08/15 12:31:14;;;;;;;13.50;7.87;;;39.20;99.90;;;;;;4888202;29;20457;-52
2022/08/15 12:33:42;;;;;;;8.90;7.90;;;39.30;99.90;;;;;;4878826;29;20420;-52
2022/08/15 12:36:08;;;;;;;7.63;7.03;;;39.10;99.90;;;;;;4878520;29;20461;-53
2022/08/15 12:38:35;;;;;;;9.87;7.43;;;38.60;99.90;;;;;;4888129;29;20452;-50
2022/08/15 12:41:02;;;;;;;8.83;7.03;;;37.60;99.90;;;;;;4890251;29;20556;-49
2022/08/15 12:43:28;;;;;;;12.73;8.47;;;36.80;99.90;;;;;;4878708;29;20416;-49
2022/08/15 12:45:54;;;;;;;11.37;8.03;;;36.90;99.90;;;;;;4878541;29;20413;-50
2022/08/15 12:48:26;;;;;;;9.07;7.83;;;36.30;99.90;;;;;;4878315;29;20440;-50
2022/08/15 12:50:53;;;;;;;8.50;7.70;;;35.50;99.90;;;;;;4878489;29;20533;-50
2022/08/15 12:53:18;;;;;;;10.30;8.00;;;34.90;99.90;;;;;;4878393;29;20425;-49
2022/08/15 12:55:47;;;;;;;15.03;8.57;;;34.80;99.90;;;;;;4877569;29;20813;-49
2022/08/15 12:58:17;;;;;;;9.83;7.80;;;35.70;99.90;;;;;;4878489;29;20555;-52
2022/08/15 13:00:45;;;;;;;23.63;8.33;;;36.90;99.90;;;;;;4878340;29;20409;-49
2022/08/15 13:03:28;;;;;;;13.23;8.30;;;37.70;99.90;;;;;;4878819;29;21249;-50
2022/08/15 13:06:48;;;;;;;11.57;8.37;;;38.50;99.90;;;;;;4878595;29;20448;-49
2022/08/15 13:09:16;;;;;;;11.20;7.73;;;39.20;99.90;;;;;;4848299;29;20441;-47
2022/08/15 13:11:43;;;;;;;8.30;7.57;;;39.60;99.90;;;;;;4878494;29;20432;-49
2022/08/15 13:14:11;;;;;;;10.13;7.37;;;39.70;99.90;;;;;;4878239;29;20460;-50
2022/08/15 13:16:38;;;;;;;7.70;7.00;;;39.70;99.90;;;;;;4877915;29;20552;-50
2022/08/15 13:19:06;;;;;;;8.40;7.60;;;39.90;99.90;;;;;;4877839;29;20484;-50
2022/08/15 13:24:17;;;;;;;8.23;6.37;;;39.80;99.90;;;;;;4877925;29;20521;-51
2022/08/15 13:26:43;;;;;;;12.60;8.03;;;39.60;99.90;;;;;;4878242;29;20789;-52
2022/08/15 13:29:11;;;;;;;7.00;6.40;;;39.60;99.90;;;;;;4877795;29;20514;-49
2022/08/15 13:31:37;;;;;;;10.33;7.50;;;38.90;99.90;;;;;;4877703;29;20543;-50
2022/08/15 13:34:03;;;;;;;9.70;8.70;;;37.40;99.90;;;;;;4877758;29;20436;-51
2022/08/15 13:36:31;;;;;;;16.73;8.90;;;36.20;99.90;;;;;;4877643;29;20461;-50
2022/08/15 13:39:02;;;;;;;12.67;9.90;;;35.00;99.90;;;;;;4877980;29;20647;-50
2022/08/15 13:41:28;;;;;;;13.10;10.50;;;34.10;99.90;;;;;;4877562;29;20409;-50
2022/08/15 13:43:53;;;;;;;16.30;9.37;;;33.50;99.90;;;;;;4890237;29;20455;-50
2022/08/15 13:46:21;;;;;;;13.67;9.00;;;33.00;99.90;;;;;;4896272;29;20179;-50
2022/08/15 13:48:49;;;;;;;12.93;9.03;;;32.60;99.90;;;;;;4896137;29;20194;-50
2022/08/15 13:51:25;;;;;;;10.90;9.80;;;32.30;99.90;;;;;;4896073;29;20432;-49
2022/08/15 13:53:53;;;;;;;11.90;9.10;;;32.00;99.90;;;;;;4896102;29;20440;-50
2022/08/15 13:56:20;;;;;;;16.67;9.80;;;32.10;99.90;;;;;;4896327;29;20479;-49
2022/08/15 13:58:46;;;;;;;10.57;9.53;;;32.90;99.90;;;;;;4896168;29;20435;-51
2022/08/15 14:01:13;;;;;;;9.33;8.53;;;33.80;99.90;;;;;;4895972;29;20428;-50
2022/08/15 14:03:40;;;;;;;15.90;9.50;;;34.70;99.90;;;;;;4895971;29;20503;-50
2022/08/15 14:06:07;;;;;;;15.17;8.27;;;35.30;99.90;;;;;;4895923;29;20882;-50
2022/08/15 14:08:33;;;;;;;9.17;8.37;;;35.70;99.90;;;;;;4896118;29;20428;-49
2022/08/15 14:10:59;;;;;;;14.63;8.60;;;35.80;99.90;;;;;;4895969;29;20416;-49
2022/08/15 14:13:25;;;;;;;9.50;8.40;;;35.80;99.90;;;;;;4895830;29;20439;-50
2022/08/15 14:15:53;;;;;;;11.27;7.63;;;36.00;99.90;;;;;;4895757;29;20212;-50
2022/08/15 14:18:19;;;;;;;8.83;7.80;;;35.90;99.90;;;;;;4895873;29;20575;-49
2022/08/15 14:20:45;;;;;;;7.87;7.17;;;35.90;99.90;;;;;;4895894;29;20412;-49
2022/08/15 14:23:11;;;;;;;8.30;6.83;;;35.90;99.90;;;;;;4895852;29;20239;-50
2022/08/15 14:25:39;;;;;;;9.50;6.70;;;36.00;99.90;;;;;;4895808;29;20431;-50
2022/08/15 14:28:07;;;;;;;7.97;7.27;;;36.10;99.90;;;;;;4895743;29;20424;-50
2022/08/15 14:30:33;;;;;;;7.90;7.13;;;36.20;99.90;;;;;;4895828;29;20420;-49
2022/08/15 14:33:00;;;;;;;8.97;7.80;;;36.30;99.90;;;;;;4895702;29;20423;-50
2022/08/15 14:35:27;;;;;;;9.10;8.20;;;35.40;99.90;;;;;;4895705;29;20459;-50
2022/08/15 14:37:55;;;;;;;8.73;7.87;;;34.30;99.90;;;;;;4896144;29;20511;-50
2022/08/15 14:40:30;;;;;;;11.40;8.40;;;33.40;99.90;;;;;;4895713;29;20394;-49
2022/08/15 14:42:56;;;;;;;8.43;7.60;;;32.70;99.90;;;;;;4895771;29;20423;-50
2022/08/15 14:45:23;;;;;;;8.90;8.00;;;32.40;99.90;;;;;;4895910;29;20416;-50
2022/08/15 14:47:49;;;;;;;11.30;8.07;;;32.30;99.90;;;;;;4895697;29;20175;-50
2022/08/15 14:50:21;;;;;;;7.83;7.10;;;32.30;99.90;;;;;;4895490;29;20459;-45
2022/08/15 14:52:47;;;;;;;13.70;8.10;;;32.00;99.90;;;;;;4895563;29;20982;-44
2022/08/15 14:55:13;;;;;;;8.77;7.80;;;31.50;99.90;;;;;;4895480;29;20584;-44
2022/08/15 14:57:39;;;;;;;14.97;8.30;;;31.10;99.90;;;;;;4895739;29;20191;-45
2022/08/15 15:00:09;;;;;;;11.80;8.30;;;30.80;99.90;;;;;;4895950;29;20423;-44
2022/08/15 15:02:36;;;;;;;9.87;8.37;;;30.40;99.90;;;;;;4895503;29;20311;-45
2022/08/15 15:05:05;;;;;;;11.30;8.57;;;30.00;99.90;;;;;;4895742;29;20918;-45
2022/08/15 15:07:30;;;;;;;10.33;7.90;;;29.60;99.90;;;;;;4895439;29;20435;-44
2022/08/15 15:09:57;;;;;;;17.30;8.70;;;29.40;99.90;;;;;;4895455;29;20412;-44
2022/08/15 15:12:24;;;;;;;15.60;7.90;;;29.10;99.90;;;;;;4895670;29;20582;-44
2022/08/15 15:14:50;;;;;;;8.67;7.00;;;28.80;99.90;;;;;;4895351;29;20514;-44
2022/08/15 15:17:16;;;;;;;7.60;6.90;;;28.70;99.90;;;;;;4895297;29;20424;-44
2022/08/15 15:19:43;;;;;;;12.53;8.23;;;28.60;99.90;;;;;;4896825;29;20516;-44
2022/08/15 15:22:09;;;;;;;16.83;8.53;;;28.30;99.90;;;;;;4898950;29;20477;-49
2022/08/15 15:24:36;;;;;;;8.73;7.93;;;28.10;99.90;;;;;;4898819;29;20436;-49
2022/08/15 15:27:05;;;;;;;11.03;8.67;;;28.00;99.90;;;;;;4898973;29;20430;-50
2022/08/15 15:29:33;;;;;;;9.80;8.50;;;27.90;99.90;;;;;;4898631;29;20427;-50
2022/08/15 15:31:58;;;;;;;13.23;8.00;;;27.80;99.90;;;;;;4898561;29;20424;-49
2022/08/15 15:34:24;;;;;;;8.60;7.70;;;27.70;99.90;;;;;;4898716;29;20423;-50
2022/08/15 15:36:50;;;;;;;15.00;8.57;;;27.60;99.90;;;;;;4898504;29;20278;-49
2022/08/15 15:39:20;;;;;;;9.93;7.33;;;27.50;99.90;;;;;;4898539;29;21070;-44
2022/08/15 15:41:48;;;;;;;8.17;6.70;;;27.40;99.90;;;;;;4898271;29;20176;-43
2022/08/15 15:44:25;;;;;;;9.23;7.87;;;27.30;99.90;;;;;;4896749;29;20456;-44
2022/08/15 15:46:53;;;;;;;8.10;7.30;;;27.20;99.90;;;;;;4898138;29;20420;-44
2022/08/15 15:49:28;;;;;;;9.90;8.30;;;27.10;99.90;;;;;;4898221;29;20440;-43
2022/08/15 15:51:54;;;;;;;9.63;8.27;;;27.10;99.90;;;;;;4898083;29;20419;-43
2022/08/15 15:54:19;;;;;;;11.57;7.20;;;27.00;99.90;;;;;;4897378;29;20464;-43
2022/08/15 15:56:45;;;;;;;9.30;7.83;;;26.90;99.90;;;;;;4882505;29;20251;-44
2022/08/15 15:59:10;;;;;;;10.23;7.90;;;26.80;99.90;;;;;;4879467;29;20223;-44
2022/08/15 16:01:36;;;;;;;9.23;7.33;;;26.70;99.90;;;;;;4887171;29;20192;-50
2022/08/15 16:04:03;;;;;;;7.77;7.07;;;26.70;99.90;;;;;;4889925;29;20192;-51
2022/08/15 16:06:29;;;;;;;10.20;8.07;;;26.60;99.90;;;;;;4887890;29;20207;-49
2022/08/15 16:08:57;;;;;;;10.03;7.90;;;26.50;99.90;;;;;;4879143;29;20447;-50
2022/08/15 16:11:37;;;;;;;9.60;8.10;;;26.30;99.90;;;;;;4896913;29;20443;-48
2022/08/15 16:14:28;;;;;;;12.70;8.87;;;26.30;99.90;;;;;;4897817;29;20436;-48
2022/08/15 16:17:17;;;;;;;12.47;8.63;;;26.30;99.90;;;;;;4891272;29;20496;-49
2022/08/15 16:19:49;;;;;;;9.77;7.80;;;26.50;99.90;;;;;;4889218;29;20492;-49
2022/08/15 16:22:21;;;;;;;13.23;7.93;;;26.40;99.90;;;;;;4897772;29;20902;-49
2022/08/15 16:25:04;;;;;;;18.40;7.70;;;26.30;99.90;;;;;;4897835;29;20412;-49
2022/08/15 16:27:35;;;;;;;12.30;7.87;;;26.20;99.90;;;;;;4897620;29;20507;-49
2022/08/15 16:30:10;;;;;;;9.80;8.03;;;26.20;99.90;;;;;;4898442;29;20447;-49
2022/08/15 16:32:41;;;;;;;8.40;7.60;;;26.20;99.90;;;;;;4898772;29;20442;-49
2022/08/15 16:35:17;;;;;;;14.43;9.00;;;26.10;99.90;;;;;;4899944;29;20474;-50
2022/08/15 16:37:47;;;;;;;93.27;69.27;;;26.00;99.90;;;;;;4897378;29;20420;-49
2022/08/15 16:40:28;;;;;;;13.27;10.63;;;26.00;99.90;;;;;;4889785;29;20439;-49
2022/08/15 16:43:11;;;;;;;11.00;10.00;;;25.90;99.90;;;;;;4897367;29;20424;-50
2022/08/15 16:45:56;;;;;;;11.30;10.10;;;25.80;99.90;;;;;;4897451;29;20484;-49
2022/08/15 16:48:57;;;;;;;11.63;9.53;;;25.70;99.90;;;;;;4896833;29;20436;-51
2022/08/15 16:52:02;;;;;;;10.67;9.77;;;25.60;99.90;;;;;;4897484;29;20412;-50
2022/08/15 16:54:45;;;;;;;12.23;10.70;;;25.60;99.90;;;;;;4859067;29;20539;-49
2022/08/15 16:57:16;;;;;;;12.90;11.13;;;25.50;99.90;;;;;;4886000;29;20431;-49
2022/08/15 16:59:53;;;;;;;53.97;41.27;;;25.40;99.90;;;;;;4896972;29;20400;-49
2022/08/15 17:02:43;;;;;;;17.80;14.27;;;25.40;99.90;;;;;;4897021;29;20396;-49
2022/08/15 17:05:21;;;;;;;14.13;11.27;;;25.20;99.90;;;;;;4896689;29;20447;-48
2022/08/15 17:07:57;;;;;;;11.97;10.70;;;25.20;99.90;;;;;;4897221;29;20456;-49
2022/08/15 17:10:32;;;;;;;11.70;10.33;;;25.10;99.90;;;;;;4896915;29;20459;-50
2022/08/15 17:13:20;;;;;;;12.40;11.20;;;25.00;99.90;;;;;;4896629;29;20421;-50
2022/08/15 17:16:19;;;;;;;13.20;11.27;;;25.10;99.90;;;;;;4878169;29;20540;-49
2022/08/15 17:18:55;;;;;;;17.13;11.00;;;25.10;99.90;;;;;;4878023;29;20473;-49
2022/08/15 17:21:55;;;;;;;18.63;12.00;;;25.10;99.90;;;;;;4893685;29;20439;-49
2022/08/15 17:24:39;;;;;;;15.30;11.57;;;25.00;99.90;;;;;;4895843;29;20499;-43
2022/08/15 17:27:09;;;;;;;14.37;11.20;;;24.90;99.90;;;;;;4899492;29;20475;-45
2022/08/15 17:29:43;;;;;;;12.60;11.23;;;24.80;99.90;;;;;;4896021;29;20417;-45
2022/08/15 17:32:18;;;;;;;12.50;11.20;;;24.70;99.90;;;;;;4881308;29;20515;-45
2022/08/15 17:34:48;;;;;;;15.90;11.97;;;24.60;99.90;;;;;;4884959;29;20451;-46
2022/08/15 17:37:17;;;;;;;18.60;11.20;;;24.30;99.90;;;;;;4891834;29;20449;-45
2022/08/15 17:40:15;;;;;;;21.47;11.30;;;24.20;99.90;;;;;;4894159;29;20439;-45
2022/08/15 17:42:42;;;;;;;14.07;11.87;;;24.10;99.90;;;;;;4891781;29;20824;-45
2022/08/15 17:45:21;;;;;;;15.60;10.80;;;24.00;99.90;;;;;;4896256;29;20428;-45
2022/08/15 17:47:55;;;;;;;12.83;11.40;;;23.90;99.90;;;;;;4878238;29;20472;-45
2022/08/15 17:50:36;;;;;;;13.10;11.40;;;23.80;99.90;;;;;;4877574;29;20424;-50
2022/08/15 17:53:16;;;;;;;12.23;10.93;;;23.60;99.90;;;;;;4877647;29;20928;-51
2022/08/15 17:55:51;;;;;;;13.40;12.00;;;23.50;99.90;;;;;;4877237;29;20525;-50
2022/08/15 17:58:37;;;;;;;15.67;12.77;;;23.40;99.90;;;;;;4892479;29;21032;-51
2022/08/15 18:01:04;;;;;;;13.23;11.80;;;23.30;99.90;;;;;;4892585;29;20512;-50
2022/08/15 18:03:29;;;;;;;14.30;12.90;;;23.20;99.90;;;;;;4892982;29;20476;-51
2022/08/15 18:05:55;;;;;;;17.50;12.80;;;23.10;99.90;;;;;;4875432;29;20562;-51
2022/08/15 18:08:23;;;;;;;14.03;12.40;;;23.00;99.90;;;;;;4873352;29;20204;-50
2022/08/15 18:10:53;;;;;;;14.33;12.83;;;23.00;99.90;;;;;;4873716;29;20200;-51
2022/08/15 18:13:22;;;;;;;14.60;12.57;;;22.90;99.90;;;;;;4871290;29;20452;-51
2022/08/15 18:16:03;;;;;;;14.47;12.57;;;22.90;99.90;;;;;;4872360;29;20476;-52
2022/08/15 18:18:28;;;;;;;14.33;12.40;;;22.90;99.90;;;;;;4872623;29;20496;-49
2022/08/15 18:20:57;;;;;;;14.20;12.80;;;22.90;99.90;;;;;;4871873;29;20459;-50
2022/08/15 18:23:32;;;;;;;16.13;14.33;;;22.80;99.90;;;;;;4874374;29;20210;-50
2022/08/15 18:26:18;;;;;;;13.73;12.33;;;22.80;99.90;;;;;;4871411;29;20651;-50
2022/08/15 18:28:45;;;;;;;15.50;12.87;;;22.90;99.90;;;;;;4876720;29;20448;-51
2022/08/15 18:31:21;;;;;;;14.83;13.20;;;22.80;99.90;;;;;;4893588;29;20452;-51
2022/08/15 18:33:48;;;;;;;14.93;12.77;;;22.80;99.90;;;;;;4895784;29;20404;-51
2022/08/15 18:36:33;;;;;;;15.70;12.90;;;22.80;99.90;;;;;;4879694;29;20584;-51
2022/08/15 18:41:48;;;;;;;13.13;11.73;;;22.70;99.90;;;;;;4874840;29;21017;-51
2022/08/15 18:44:29;;;;;;;13.67;12.23;;;22.70;99.90;;;;;;4876359;29;20456;-50
2022/08/15 18:47:04;;;;;;;13.53;12.23;;;22.80;99.90;;;;;;4877715;29;20928;-51
2022/08/15 18:49:32;;;;;;;17.33;13.43;;;22.80;99.90;;;;;;4886505;29;20427;-50
2022/08/15 18:51:59;;;;;;;12.97;11.77;;;22.80;99.90;;;;;;4894820;29;20468;-50
2022/08/15 18:54:44;;;;;;;15.63;12.40;;;22.80;99.90;;;;;;4886921;29;20522;-45
2022/08/15 18:57:10;;;;;;;15.50;13.77;;;22.70;99.90;;;;;;4878793;29;20463;-45
2022/08/15 18:59:38;;;;;;;19.60;13.43;;;22.60;99.90;;;;;;4879051;29;20452;-45
2022/08/15 19:02:42;;;;;;;15.63;13.13;;;22.60;99.90;;;;;;4891996;29;20610;-46
2022/08/15 19:05:20;;;;;;;14.57;12.80;;;22.50;99.90;;;;;;4881060;29;20463;-45
2022/08/15 19:07:59;;;;;;;15.00;13.50;;;22.50;99.90;;;;;;4880128;29;20927;-46
2022/08/15 19:10:43;;;;;;;15.70;14.00;;;22.50;99.90;;;;;;4885191;29;20447;-46
2022/08/15 19:13:17;;;;;;;14.27;12.83;;;22.50;99.90;;;;;;4888147;29;20447;-45
2022/08/15 19:16:05;;;;;;;15.10;13.37;;;22.40;99.90;;;;;;4881220;29;20532;-45
2022/08/15 19:18:53;;;;;;;15.20;12.60;;;22.40;99.90;;;;;;4879103;29;20540;-51
2022/08/15 19:21:20;;;;;;;13.50;12.13;;;22.40;99.90;;;;;;4878885;29;20457;-50
2022/08/15 19:23:48;;;;;;;15.57;13.60;;;22.50;99.90;;;;;;4878962;29;20487;-50
2022/08/15 19:26:29;;;;;;;15.10;13.00;;;22.50;99.90;;;;;;4879009;29;20516;-50
2022/08/15 19:29:32;;;;;;;15.03;13.53;;;22.50;99.90;;;;;;4882840;29;20459;-50
2022/08/15 19:32:21;;;;;;;14.10;12.60;;;22.40;99.90;;;;;;4890621;29;20446;-50
2022/08/15 19:35:08;;;;;;;20.80;13.90;;;22.40;99.90;;;;;;4833270;29;20457;-51
2022/08/15 19:37:55;;;;;;;14.67;12.67;;;22.40;99.90;;;;;;4880961;29;20439;-50
2022/08/15 19:40:27;;;;;;;15.03;11.60;;;22.40;99.90;;;;;;4880489;29;20442;-49
2022/08/15 19:43:13;;;;;;;14.03;12.23;;;22.40;99.90;;;;;;4891403;29;20480;-50
2022/08/15 19:45:54;;;;;;;13.90;11.83;;;22.40;99.90;;;;;;4880741;29;20448;-51
2022/08/15 19:48:52;;;;;;;15.57;13.30;;;22.40;99.90;;;;;;4870886;29;20452;-50
2022/08/15 19:51:42;;;;;;;15.13;13.53;;;22.30;99.90;;;;;;4889870;29;21124;-50
2022/08/15 19:54:26;;;;;;;15.20;13.50;;;22.30;99.90;;;;;;4881076;29;20451;-49
2022/08/15 19:57:07;;;;;;;15.07;12.80;;;22.20;99.90;;;;;;4877106;29;20570;-50
2022/08/15 19:59:59;;;;;;;16.60;14.10;;;22.20;99.90;;;;;;4877941;29;20459;-50
2022/08/15 20:02:50;;;;;;;15.70;14.10;;;22.10;99.90;;;;;;4876048;29;20814;-50
2022/08/15 20:05:40;;;;;;;16.17;14.40;;;22.10;99.90;;;;;;4871771;29;20459;-50
2022/08/15 20:08:23;;;;;;;15.40;13.53;;;22.00;99.90;;;;;;4882958;29;21372;-49
2022/08/15 20:10:53;;;;;;;19.80;14.37;;;22.00;99.90;;;;;;4879587;29;20487;-49
2022/08/15 20:13:22;;;;;;;16.53;14.00;;;22.00;99.90;;;;;;4887999;29;20462;-50
2022/08/15 20:16:09;;;;;;;16.17;14.53;;;22.00;99.90;;;;;;4878369;29;20482;-49
2022/08/15 20:18:56;;;;;;;17.23;15.53;;;22.00;99.90;;;;;;4882145;29;20483;-50
2022/08/15 20:21:49;;;;;;;16.97;15.17;;;22.00;99.90;;;;;;4883730;29;20447;-50
2022/08/15 20:24:21;;;;;;;16.90;15.10;;;21.90;99.90;;;;;;4877188;29;20511;-50
2022/08/15 20:26:55;;;;;;;16.10;14.40;;;21.90;99.90;;;;;;4877844;29;20467;-49
2022/08/15 20:29:26;;;;;;;16.57;14.80;;;21.90;99.90;;;;;;4880376;29;20874;-50
2022/08/15 20:32:12;;;;;;;16.07;14.37;;;22.00;99.90;;;;;;4879228;29;20456;-51
2022/08/15 20:34:41;;;;;;;18.43;15.20;;;22.10;99.90;;;;;;4877089;29;20459;-50
2022/08/15 20:37:18;;;;;;;17.40;15.60;;;22.10;99.90;;;;;;4907008;29;20497;-51
2022/08/15 20:39:45;;;;;;;17.47;15.57;;;22.10;99.90;;;;;;4896994;29;20895;-50
2022/08/15 20:42:29;;;;;;;24.33;16.77;;;22.00;99.90;;;;;;4881937;29;20456;-50
2022/08/15 20:45:12;;;;;;;21.20;16.80;;;22.00;99.90;;;;;;4890080;29;20935;-50